createdAt,value
2022-11-05T00:00:59.982Z,99866.41
2022-11-05T00:06:34.734Z,99865.81
2022-11-05T00:11:56.254Z,99881.09
2022-11-05T00:16:58.861Z,99890.88
2022-11-05T00:22:19.093Z,99887.31
2022-11-05T00:27:23.162Z,99889.91
2022-11-05T00:32:25.813Z,99894.69
2022-11-05T00:37:28.617Z,99899.91
2022-11-05T00:42:50.313Z,99896.50
2022-11-05T00:48:10.642Z,99911.78
2022-11-05T00:53:13.619Z,99918.28
2022-11-05T00:58:18.578Z,99915.88
2022-11-05T01:03:22.407Z,99922.81
2022-11-05T01:08:26.164Z,99918.44
2022-11-05T01:13:30.655Z,99933.69
2022-11-05T01:18:33.248Z,99930.16
2022-11-05T01:23:36.004Z,99938.22
2022-11-05T01:28:39.973Z,99948.00
2022-11-05T01:33:42.621Z,99953.94
2022-11-05T01:38:45.283Z,99965.09
2022-11-05T01:43:50.147Z,99967.66
2022-11-05T01:48:56.171Z,99970.19
2022-11-05T01:54:02.527Z,99972.31
2022-11-05T01:59:07.783Z,99978.53
2022-11-05T02:04:17.743Z,99978.41
2022-11-05T02:09:22.496Z,99985.59
2022-11-05T02:14:26.505Z,99990.97
2022-11-05T02:20:06.259Z,99990.28
2022-11-05T02:25:17.644Z,99998.34
2022-11-05T02:30:30.743Z,100008.94
2022-11-05T02:35:49.984Z,100006.25
2022-11-05T02:40:56.377Z,100010.78
2022-11-05T02:46:11.048Z,100005.66
2022-11-05T02:51:15.862Z,100011.03
2022-11-05T02:56:23.271Z,100014.44
2022-11-05T03:01:27.391Z,100019.69
2022-11-05T03:07:00.110Z,100019.09
2022-11-05T03:12:06.408Z,100028.00
2022-11-05T03:17:13.652Z,100034.97
2022-11-05T03:22:17.477Z,100040.56
2022-11-05T03:27:22.364Z,100045.94
2022-11-05T03:32:26.279Z,100054.75
2022-11-05T03:37:29.862Z,100073.09
2022-11-05T03:42:34.410Z,100075.28
2022-11-05T03:47:39.291Z,100081.88
2022-11-05T03:52:45.250Z,100083.56
2022-11-05T03:57:48.097Z,100093.94
2022-11-05T04:02:52.334Z,100100.53
2022-11-05T04:08:14.443Z,100108.38
2022-11-05T04:13:26.234Z,100112.28
2022-11-05T04:18:30.235Z,100105.81
2022-11-05T04:23:52.665Z,100117.28
2022-11-05T04:29:12.795Z,100118.38
2022-11-05T04:34:18.729Z,100120.09
2022-11-05T04:39:21.419Z,100115.56
2022-11-05T04:44:24.015Z,100121.81
2022-11-05T04:49:27.968Z,100120.19
2022-11-05T04:54:30.823Z,100122.03
2022-11-05T04:59:33.443Z,100118.97
2022-11-05T05:04:37.429Z,100123.63
2022-11-05T05:09:40.110Z,100131.69
2022-11-05T05:14:45.023Z,100143.31
2022-11-05T05:20:06.629Z,100151.34
2022-11-05T05:25:09.582Z,100152.44
2022-11-05T05:30:12.863Z,100154.91
2022-11-05T05:35:17.180Z,100171.25
2022-11-05T05:40:19.819Z,100181.91
2022-11-05T05:45:22.611Z,100186.53
2022-11-05T05:50:26.622Z,100204.34
2022-11-05T05:55:29.232Z,100206.19
2022-11-05T06:00:31.871Z,100212.19
2022-11-05T06:05:35.876Z,100213.53
2022-11-05T06:10:38.767Z,100224.28
2022-11-05T06:15:41.468Z,100233.06
2022-11-05T06:20:45.526Z,100236.59
2022-11-05T06:25:48.146Z,100242.84
2022-11-05T06:30:51.492Z,100245.66
2022-11-05T06:35:55.699Z,100259.84
2022-11-05T06:40:59.171Z,100274.47
2022-11-05T06:46:02.336Z,100289.75
2022-11-05T06:51:07.947Z,100295.97
2022-11-05T06:56:10.550Z,100299.66
2022-11-05T07:01:13.195Z,100310.41
2022-11-05T07:06:18.413Z,100312.22
2022-11-05T07:11:21.161Z,100325.53
2022-11-05T07:16:23.825Z,100333.84
2022-11-05T07:21:27.845Z,100326.66
2022-11-05T07:26:34.383Z,100339.81
2022-11-05T07:31:37.403Z,100341.91
2022-11-05T07:36:41.565Z,100349.13
2022-11-05T07:41:44.211Z,100352.53
2022-11-05T07:46:46.847Z,100356.47
2022-11-05T07:51:51.003Z,100375.88
2022-11-05T07:56:53.879Z,100374.75
2022-11-05T08:01:56.556Z,100386.50
2022-11-05T08:07:00.660Z,100393.44
2022-11-05T08:12:03.555Z,100400.19
2022-11-05T08:17:06.242Z,100395.66
2022-11-05T08:22:10.251Z,100397.00
2022-11-05T08:27:12.866Z,100397.38
2022-11-05T08:32:16.575Z,100403.72
2022-11-05T08:37:20.555Z,100403.59
2022-11-05T08:42:23.145Z,100403.59
2022-11-05T08:47:26.283Z,100414.22
2022-11-05T08:52:30.322Z,100426.03
2022-11-05T08:57:33.062Z,100420.03
2022-11-05T09:02:35.842Z,100422.00
2022-11-05T09:07:39.822Z,100429.66
2022-11-05T09:12:42.465Z,100433.50
2022-11-05T09:17:45.164Z,100442.66
2022-11-05T09:22:49.357Z,100445.41
2022-11-05T09:27:51.961Z,100447.47
2022-11-05T09:32:54.645Z,100441.75
2022-11-05T09:38:01.110Z,100457.63
2022-11-05T09:43:04.121Z,100459.19
2022-11-05T09:48:09.344Z,100463.91
2022-11-05T09:53:14.106Z,100467.34
2022-11-05T09:58:18.615Z,100463.44
2022-11-05T10:03:22.663Z,100461.75
2022-11-05T10:08:29.362Z,100470.00
2022-11-05T10:13:36.022Z,100459.75
2022-11-05T10:18:40.576Z,100461.34
2022-11-05T10:23:44.709Z,100472.72
2022-11-05T10:28:47.377Z,100476.00
2022-11-05T10:33:51.228Z,100470.03
2022-11-05T10:38:57.387Z,100475.28
2022-11-05T10:44:04.394Z,100486.03
2022-11-05T10:49:17.174Z,100483.22
2022-11-05T10:54:22.892Z,100484.81
2022-11-05T10:59:26.590Z,100490.69
2022-11-05T11:04:33.619Z,100492.28
2022-11-05T11:09:41.564Z,100489.84
2022-11-05T11:14:44.214Z,100486.31
2022-11-05T11:19:46.935Z,100495.81
2022-11-05T11:24:53.779Z,100493.00
2022-11-05T11:29:58.420Z,100504.59
2022-11-05T11:35:01.502Z,100506.22
2022-11-05T11:40:06.741Z,100510.81
2022-11-05T11:45:16.417Z,100501.44
2022-11-05T11:50:34.170Z,100499.00
2022-11-05T11:55:38.385Z,100495.22
2022-11-05T12:00:43.791Z,100488.06
2022-11-05T12:05:48.736Z,100491.88
2022-11-05T12:10:57.613Z,100491.53
2022-11-05T12:16:03.949Z,100479.94
2022-11-05T12:21:08.059Z,100491.53
2022-11-05T12:26:16.393Z,100483.59
2022-11-05T12:31:23.600Z,100485.69
2022-11-05T12:36:40.098Z,100492.63
2022-11-05T12:41:48.288Z,100480.78
2022-11-05T12:46:57.218Z,100483.97
2022-11-05T12:52:10.624Z,100486.41
2022-11-05T12:57:14.902Z,100495.19
2022-11-05T13:02:21.957Z,100491.53
2022-11-05T13:07:27.428Z,100498.63
2022-11-05T13:12:32.468Z,100497.50
2022-11-05T13:17:37.937Z,100494.22
2022-11-05T13:22:43.663Z,100500.94
2022-11-05T13:27:52.888Z,100498.00
2022-11-05T13:32:59.700Z,100495.94
2022-11-05T13:38:38.021Z,100506.69
2022-11-05T13:43:56.278Z,100516.97
2022-11-05T13:49:09.632Z,100509.03
2022-11-05T13:54:45.767Z,100507.66
2022-11-05T14:00:05.201Z,100506.34
2022-11-05T14:05:08.265Z,100524.19
2022-11-05T14:10:15.810Z,100528.69
2022-11-05T14:15:22.068Z,100525.28
2022-11-05T14:20:27.575Z,100519.16
2022-11-05T14:26:12.533Z,100523.06
2022-11-05T14:31:47.213Z,100521.97
2022-11-05T14:37:25.584Z,100520.84
2022-11-05T14:42:28.905Z,100533.22
2022-11-05T14:47:34.252Z,100542.47
2022-11-05T14:52:36.987Z,100533.44
2022-11-05T14:58:03.046Z,100543.47
2022-11-05T15:03:42.627Z,100542.63
2022-11-05T15:09:24.061Z,100538.34
2022-11-05T15:14:28.884Z,100539.78
2022-11-05T15:19:34.314Z,100547.13
2022-11-05T15:24:37.460Z,100550.41
2022-11-05T15:29:40.312Z,100548.03
2022-11-05T15:34:56.561Z,100550.25
2022-11-05T15:39:59.332Z,100555.09
2022-11-05T15:45:02.091Z,100562.84
2022-11-05T15:50:14.674Z,100564.19
2022-11-05T15:55:23.679Z,100571.66
2022-11-05T16:00:27.741Z,100568.97
2022-11-05T16:05:34.045Z,100575.78
2022-11-05T16:10:38.688Z,100579.47
2022-11-05T16:15:53.951Z,100581.28
2022-11-05T16:21:05.476Z,100590.19
2022-11-05T16:26:55.874Z,100585.44
2022-11-05T16:31:50.155Z,100595.44
2022-11-05T16:36:56.512Z,100599.72
2022-11-05T16:41:59.131Z,100601.06
2022-11-05T16:47:01.904Z,100605.47
2022-11-05T16:52:09.831Z,100615.47
2022-11-05T16:57:16.117Z,100611.16
2022-11-05T17:02:18.925Z,100617.19
2022-11-05T17:07:23.058Z,100623.78
2022-11-05T17:12:25.968Z,100622.59
2022-11-05T17:17:28.952Z,100629.47
2022-11-05T17:22:32.953Z,100636.09
2022-11-05T17:27:35.615Z,100637.81
2022-11-05T17:32:38.414Z,100648.44
2022-11-05T17:37:42.634Z,100653.91
2022-11-05T17:42:46.113Z,100661.75
2022-11-05T17:47:48.741Z,100661.13
2022-11-05T17:52:52.772Z,100662.84
2022-11-05T17:57:55.600Z,100665.66
2022-11-05T18:02:58.377Z,100671.13
2022-11-05T18:08:02.369Z,100669.91
2022-11-05T18:13:05.170Z,100668.94
2022-11-05T18:18:10.467Z,100677.25
2022-11-05T18:23:15.123Z,100672.13
2022-11-05T18:28:18.184Z,100672.97
2022-11-05T18:33:20.804Z,100670.41
2022-11-05T18:38:25.025Z,100666.88
2022-11-05T18:43:27.758Z,100666.09
2022-11-05T18:48:31.387Z,100672.44
2022-11-05T18:53:35.422Z,100677.19
2022-11-05T18:58:38.498Z,100668.03
2022-11-05T19:03:41.273Z,100679.66
2022-11-05T19:08:45.422Z,100672.13
2022-11-05T19:13:48.307Z,100677.13
2022-11-05T19:18:51.279Z,100674.44
2022-11-05T19:23:56.853Z,100681.53
2022-11-05T19:29:00.415Z,100680.78
2022-11-05T19:34:03.406Z,100687.66
2022-11-05T19:39:09.170Z,100692.91
2022-11-05T19:44:11.851Z,100696.47
2022-11-05T19:49:14.625Z,100694.63
2022-11-05T19:54:18.815Z,100687.31
2022-11-05T19:59:21.671Z,100691.69
2022-11-05T20:04:24.306Z,100680.22
2022-11-05T20:09:28.453Z,100682.91
2022-11-05T20:14:31.364Z,100689.75
2022-11-05T20:19:35.321Z,100693.53
2022-11-05T20:24:39.534Z,100700.97
2022-11-05T20:29:42.268Z,100698.06
2022-11-05T20:34:45.361Z,100699.75
2022-11-05T20:39:49.386Z,100703.41
2022-11-05T20:44:52.152Z,100707.09
2022-11-05T20:49:55.303Z,100707.81
2022-11-05T20:54:59.451Z,100723.09
2022-11-05T21:00:02.212Z,100717.84
2022-11-05T21:05:07.360Z,100725.78
2022-11-05T21:10:11.933Z,100731.38
2022-11-05T21:15:14.940Z,100726.88
2022-11-05T21:20:17.745Z,100724.31
2022-11-05T21:25:21.711Z,100723.31
2022-11-05T21:30:24.380Z,100722.34
2022-11-05T21:35:27.123Z,100723.44
2022-11-05T21:40:31.245Z,100716.25
2022-11-05T21:45:33.934Z,100712.69
2022-11-05T21:50:54.173Z,100716.38
2022-11-05T21:56:15.925Z,100712.78
2022-11-05T22:01:18.646Z,100713.69
2022-11-05T22:06:21.368Z,100713.69
2022-11-05T22:11:25.435Z,100716.44
2022-11-05T22:16:28.109Z,100726.22
2022-11-05T22:21:30.761Z,100729.69
2022-11-05T22:26:35.003Z,100725.16
2022-11-05T22:31:37.657Z,100718.06
2022-11-05T22:36:40.333Z,100728.81
2022-11-05T22:41:44.421Z,100721.75
2022-11-05T22:46:47.073Z,100725.16
2022-11-05T22:51:49.692Z,100720.06
2022-11-05T22:56:53.771Z,100719.94
2022-11-05T23:01:56.550Z,100715.19
2022-11-05T23:07:16.802Z,100707.88
2022-11-05T23:12:23.979Z,100697.97
2022-11-05T23:17:44.159Z,100703.25
2022-11-05T23:23:04.796Z,100704.00
2022-11-05T23:28:10.237Z,100699.47
2022-11-05T23:33:13.191Z,100703.00
2022-11-05T23:38:33.349Z,100710.09
2022-11-05T23:43:54.823Z,100710.94
2022-11-05T23:49:00.584Z,100714.63
2022-11-05T23:54:03.177Z,100710.94
2022-11-05T23:59:07.190Z,100711.81
